createdAt,value
2019-03-03T00:05:28.299Z,9.78
2019-03-03T00:08:17.303Z,12.13
2019-03-03T00:11:05.976Z,9.73
2019-03-03T00:14:06.666Z,9.40
2019-03-03T00:16:45.142Z,13.50
2019-03-03T00:19:34.437Z,9.30
2019-03-03T00:22:23.142Z,9.85
2019-03-03T00:25:11.920Z,11.93
2019-03-03T00:31:09.994Z,8.73
2019-03-03T00:33:51.235Z,12.93
2019-03-03T00:36:51.527Z,9.20
2019-03-03T00:39:53.197Z,7.97
2019-03-03T00:42:54.411Z,10.18
2019-03-03T00:45:45.068Z,9.65
2019-03-03T00:48:45.495Z,18.40
2019-03-03T00:51:45.976Z,10.45
2019-03-03T00:57:28.899Z,13.08
2019-03-03T01:00:30.371Z,12.33
2019-03-03T01:03:06.773Z,13.62
2019-03-03T01:06:07.256Z,14.20
2019-03-03T01:09:13.248Z,16.10
2019-03-03T01:12:19.757Z,14.50
2019-03-03T01:15:19.821Z,18.95
2019-03-03T01:18:19.832Z,14.50
2019-03-03T01:21:23.313Z,18.67
2019-03-03T01:24:23.531Z,12.03
2019-03-03T01:27:05.148Z,12.80
2019-03-03T01:29:46.664Z,13.90
2019-03-03T01:32:28.199Z,11.05
2019-03-03T01:35:09.556Z,11.53
2019-03-03T01:37:50.449Z,15.18
2019-03-03T01:40:31.469Z,11.15
2019-03-03T01:43:12.656Z,10.60
2019-03-03T01:45:54.273Z,10.48
2019-03-03T01:48:35.580Z,15.08
2019-03-03T01:51:16.455Z,13.20
2019-03-03T01:53:58.019Z,8.80
2019-03-03T01:56:39.301Z,8.30
2019-03-03T01:59:20.453Z,11.38
2019-03-03T02:02:02.053Z,6.65
2019-03-03T02:04:43.981Z,10.72
2019-03-03T02:07:25.263Z,7.33
2019-03-03T02:10:06.842Z,11.90
2019-03-03T02:12:48.448Z,10.13
2019-03-03T02:15:29.716Z,6.85
2019-03-03T02:18:11.073Z,5.60
2019-03-03T02:20:52.525Z,13.50
2019-03-03T02:23:34.140Z,12.60
2019-03-03T02:26:13.911Z,9.63
2019-03-03T02:31:58.135Z,7.15
2019-03-03T02:34:39.213Z,7.22
2019-03-03T02:37:20.833Z,5.95
2019-03-03T02:40:02.545Z,9.38
2019-03-03T02:42:44.141Z,7.87
2019-03-03T02:45:25.514Z,6.37
2019-03-03T02:48:06.693Z,9.55
2019-03-03T02:50:48.314Z,8.70
2019-03-03T02:53:29.784Z,9.30
2019-03-03T02:56:11.141Z,7.25
2019-03-03T02:58:52.771Z,9.80
2019-03-03T03:04:42.074Z,9.83
2019-03-03T03:07:41.709Z,4.15
2019-03-03T03:10:41.850Z,4.20
2019-03-03T03:13:42.160Z,5.28
2019-03-03T03:16:42.679Z,6.15
2019-03-03T03:19:42.362Z,6.67
2019-03-03T03:22:42.741Z,4.47
2019-03-03T03:25:57.621Z,5.28
2019-03-03T03:28:50.797Z,7.67
2019-03-03T03:31:51.256Z,7.30
2019-03-03T03:34:39.628Z,8.20
2019-03-03T03:37:39.782Z,7.53
2019-03-03T03:40:54.952Z,6.05
2019-03-03T03:43:35.777Z,5.90
2019-03-03T03:46:38.520Z,4.25
2019-03-03T03:49:38.700Z,8.13
2019-03-03T03:52:29.985Z,6.25
2019-03-03T03:55:30.046Z,6.00
2019-03-03T03:58:32.813Z,5.22
2019-03-03T04:01:33.062Z,7.33
2019-03-03T04:04:33.249Z,8.50
2019-03-03T04:07:46.354Z,6.80
2019-03-03T04:10:43.779Z,5.58
2019-03-03T04:13:51.320Z,6.08
2019-03-03T04:16:46.149Z,5.92
2019-03-03T04:19:53.671Z,8.58
2019-03-03T04:23:01.154Z,7.97
2019-03-03T04:26:08.631Z,15.38
2019-03-03T04:29:14.492Z,9.60
2019-03-03T04:32:21.980Z,7.05
2019-03-03T04:35:21.796Z,7.45
2019-03-03T04:47:48.216Z,9.80
2019-03-03T04:50:45.981Z,9.18
2019-03-03T04:53:53.452Z,9.73
2019-03-03T04:57:00.968Z,4.45
2019-03-03T05:00:08.409Z,7.85
2019-03-03T05:03:15.943Z,4.40
2019-03-03T05:06:23.384Z,7.08
2019-03-03T05:09:30.866Z,7.50
2019-03-03T05:16:05.224Z,5.25
2019-03-03T05:19:02.468Z,9.20
2019-03-03T05:21:51.055Z,10.68
2019-03-03T05:24:39.750Z,9.13
2019-03-03T05:27:28.774Z,6.58
2019-03-03T05:30:17.463Z,8.15
2019-03-03T05:33:06.449Z,8.23
2019-03-03T05:35:47.924Z,13.25
2019-03-03T05:38:28.763Z,8.00
2019-03-03T05:41:10.012Z,6.17
2019-03-03T05:43:49.775Z,7.95
2019-03-03T05:49:47.607Z,5.85
2019-03-03T05:55:45.392Z,8.13
2019-03-03T05:58:34.038Z,8.25
2019-03-03T06:01:23.020Z,7.55
2019-03-03T06:04:11.646Z,6.33
2019-03-03T06:10:08.456Z,8.10
2019-03-03T06:13:11.537Z,8.95
2019-03-03T06:15:47.596Z,6.47
2019-03-03T06:18:36.435Z,6.95
2019-03-03T06:21:39.539Z,9.18
2019-03-03T06:24:16.259Z,9.78
2019-03-03T06:30:28.204Z,7.72
2019-03-03T06:33:04.751Z,5.85
2019-03-03T06:35:46.168Z,9.40
2019-03-03T06:38:27.525Z,8.85
2019-03-03T06:41:09.139Z,11.22
2019-03-03T06:43:50.795Z,6.42
2019-03-03T06:46:32.015Z,13.05
2019-03-03T06:49:12.868Z,9.23
2019-03-03T06:51:53.802Z,10.68
2019-03-03T06:54:34.689Z,6.25
2019-03-03T06:57:15.720Z,7.65
2019-03-03T06:59:57.210Z,8.05
2019-03-03T07:02:38.947Z,9.25
2019-03-03T07:05:20.054Z,12.53
2019-03-03T07:08:01.377Z,4.67
2019-03-03T07:10:42.212Z,9.45
2019-03-03T07:13:23.655Z,12.28
2019-03-03T07:16:05.548Z,12.55
2019-03-03T07:18:47.076Z,9.95
2019-03-03T07:21:27.807Z,7.35
2019-03-03T07:24:09.187Z,9.08
2019-03-03T07:26:50.704Z,7.87
2019-03-03T07:29:32.612Z,7.75
2019-03-03T07:32:14.312Z,9.20
2019-03-03T07:34:55.874Z,9.08
2019-03-03T07:37:35.822Z,10.45
2019-03-03T07:40:24.505Z,11.00
2019-03-03T07:43:13.138Z,12.43
2019-03-03T07:48:57.070Z,7.15
2019-03-03T07:51:45.667Z,9.98
2019-03-03T07:54:34.282Z,9.38
2019-03-03T08:00:17.709Z,8.78
2019-03-03T08:08:57.832Z,8.75
2019-03-03T08:14:40.823Z,6.40
2019-03-03T08:17:29.501Z,11.78
2019-03-03T08:20:18.222Z,5.17
2019-03-03T08:26:02.378Z,7.58
2019-03-03T08:31:46.555Z,15.85
2019-03-03T08:37:29.155Z,8.65
2019-03-03T08:40:18.324Z,8.98
2019-03-03T08:43:25.791Z,7.50
2019-03-03T08:46:33.273Z,6.55
2019-03-03T08:49:27.726Z,10.13
2019-03-03T08:52:35.167Z,13.48
2019-03-03T08:55:43.828Z,10.53
2019-03-03T09:01:55.973Z,6.25
2019-03-03T09:05:03.492Z,5.40
2019-03-03T09:08:10.953Z,7.55
2019-03-03T09:11:18.731Z,10.43
2019-03-03T09:14:26.216Z,14.03
2019-03-03T09:17:33.729Z,11.45
2019-03-03T09:20:41.242Z,7.37
2019-03-03T09:23:48.715Z,6.33
2019-03-03T09:26:56.205Z,11.50
2019-03-03T09:30:03.711Z,6.62
2019-03-03T09:33:11.176Z,6.42
2019-03-03T09:36:11.113Z,4.35
2019-03-03T09:45:20.346Z,5.85
2019-03-03T09:48:20.293Z,7.97
2019-03-03T09:51:37.599Z,5.45
2019-03-03T09:54:25.045Z,8.00
2019-03-03T09:57:14.980Z,4.80
2019-03-03T10:00:15.289Z,4.40
2019-03-03T10:03:15.657Z,8.85
2019-03-03T10:06:18.759Z,8.30
2019-03-03T10:09:18.323Z,4.37
2019-03-03T10:12:04.672Z,5.12
2019-03-03T10:15:03.151Z,4.95
2019-03-03T10:17:56.309Z,5.33
2019-03-03T10:20:45.874Z,4.10
2019-03-03T10:23:46.021Z,3.27
2019-03-03T10:26:46.628Z,4.05
2019-03-03T10:33:12.074Z,2.80
2019-03-03T10:39:40.492Z,5.83
2019-03-03T10:42:47.988Z,3.27
2019-03-03T10:45:55.739Z,2.90
2019-03-03T10:49:03.231Z,2.17
2019-03-03T10:52:10.696Z,7.28
2019-03-03T10:55:18.482Z,4.65
2019-03-03T10:58:25.947Z,7.65
2019-03-03T11:01:33.442Z,4.15
2019-03-03T11:04:41.219Z,7.47
2019-03-03T11:07:48.712Z,7.25
2019-03-03T11:10:57.771Z,8.98
2019-03-03T11:14:05.409Z,9.08
2019-03-03T11:17:00.625Z,1.42
2019-03-03T11:20:08.096Z,2.70
2019-03-03T11:23:15.589Z,1.55
2019-03-03T11:26:23.080Z,1.70
2019-03-03T11:29:23.603Z,1.35
2019-03-03T11:32:24.001Z,1.42
2019-03-03T11:35:23.609Z,1.62
2019-03-03T11:38:39.114Z,1.80
2019-03-03T11:41:34.480Z,2.42
2019-03-03T11:44:41.993Z,1.85
2019-03-03T11:47:41.236Z,3.08
2019-03-03T11:50:48.733Z,1.02
2019-03-03T11:53:56.187Z,3.12
2019-03-03T12:00:09.897Z,1.45
2019-03-03T12:09:53.880Z,1.55
2019-03-03T12:13:01.632Z,2.00
2019-03-03T12:16:09.112Z,1.82
2019-03-03T12:19:16.606Z,1.42
2019-03-03T12:25:38.378Z,1.82
2019-03-03T12:28:50.360Z,1.87
2019-03-03T12:38:05.038Z,2.35
2019-03-03T12:41:12.551Z,2.45
2019-03-03T12:44:19.989Z,2.15
2019-03-03T12:47:27.480Z,1.55
2019-03-03T12:50:35.256Z,1.77
2019-03-03T12:53:42.716Z,4.00
2019-03-03T12:56:50.240Z,1.35
2019-03-03T12:59:43.556Z,0.78
2019-03-03T13:02:51.325Z,1.00
2019-03-03T13:05:59.120Z,2.25
2019-03-03T13:09:06.549Z,0.90
2019-03-03T13:12:14.325Z,4.35
2019-03-03T13:15:08.685Z,4.12
2019-03-03T13:18:16.173Z,1.12
2019-03-03T13:21:24.202Z,1.30
2019-03-03T13:24:33.117Z,1.20
2019-03-03T13:27:28.369Z,1.60
2019-03-03T13:30:28.622Z,0.98
2019-03-03T13:33:29.047Z,1.25
2019-03-03T13:39:36.799Z,1.05
2019-03-03T13:42:43.407Z,1.37
2019-03-03T13:45:24.822Z,1.20
2019-03-03T13:48:06.136Z,1.27
2019-03-03T13:50:47.759Z,1.40
2019-03-03T13:53:29.053Z,1.67
2019-03-03T13:56:10.826Z,1.57
2019-03-03T13:58:52.105Z,2.27
2019-03-03T14:01:33.501Z,1.52
2019-03-03T14:04:14.508Z,1.35
2019-03-03T14:06:55.863Z,1.17
2019-03-03T14:09:36.666Z,1.57
2019-03-03T14:12:18.379Z,1.12
2019-03-03T14:14:59.513Z,2.40
2019-03-03T14:17:40.966Z,2.10
2019-03-03T14:20:21.983Z,1.42
2019-03-03T14:23:02.684Z,0.80
2019-03-03T14:25:44.214Z,1.47
2019-03-03T14:28:25.465Z,0.95
2019-03-03T14:31:06.525Z,1.15
2019-03-03T14:33:47.663Z,0.88
2019-03-03T14:36:28.472Z,0.70
2019-03-03T14:39:10.123Z,1.07
2019-03-03T14:41:51.812Z,2.92
2019-03-03T14:44:33.427Z,1.05
2019-03-03T14:47:14.251Z,1.10
2019-03-03T14:49:55.940Z,1.35
2019-03-03T14:52:37.443Z,1.15
2019-03-03T14:55:19.271Z,1.27
2019-03-03T14:58:00.149Z,2.12
2019-03-03T15:00:41.761Z,1.62
2019-03-03T15:03:21.483Z,2.25
2019-03-03T15:09:38.288Z,2.85
2019-03-03T15:12:26.980Z,1.90
2019-03-03T15:15:15.836Z,3.15
2019-03-03T15:18:04.642Z,1.70
2019-03-03T15:20:53.232Z,2.60
2019-03-03T15:23:41.948Z,2.87
2019-03-03T15:26:30.592Z,1.80
2019-03-03T15:29:19.479Z,2.72
2019-03-03T15:32:22.012Z,2.58
2019-03-03T15:34:58.505Z,1.75
2019-03-03T15:40:46.093Z,1.60
2019-03-03T15:43:34.712Z,1.70
2019-03-03T15:46:23.321Z,9.90
2019-03-03T15:49:11.946Z,5.17
2019-03-03T15:52:14.985Z,2.33
2019-03-03T15:57:51.189Z,2.42
2019-03-03T16:00:40.163Z,4.33
2019-03-03T16:06:17.292Z,2.45
2019-03-03T16:08:58.540Z,2.90
2019-03-03T16:11:39.479Z,2.40
2019-03-03T16:14:20.786Z,2.17
2019-03-03T16:17:00.796Z,4.40
2019-03-03T16:22:57.676Z,5.50
2019-03-03T16:25:35.968Z,5.10
2019-03-03T16:28:36.371Z,7.58
2019-03-03T16:31:14.862Z,8.55
2019-03-03T16:39:57.811Z,5.28
2019-03-03T16:42:46.394Z,2.10
2019-03-03T16:45:35.095Z,3.25
2019-03-03T16:48:23.749Z,2.50
2019-03-03T16:54:11.237Z,3.22
2019-03-03T16:57:13.817Z,3.20
2019-03-03T17:05:33.649Z,3.42
2019-03-03T17:08:15.185Z,2.47
2019-03-03T17:10:54.909Z,2.22
2019-03-03T17:13:43.558Z,2.52
2019-03-03T17:19:40.472Z,3.50
2019-03-03T17:22:17.107Z,2.95
2019-03-03T17:31:20.743Z,5.55
2019-03-03T17:34:13.053Z,3.70
2019-03-03T17:37:00.039Z,5.65
2019-03-03T17:39:48.912Z,3.30
2019-03-03T17:42:37.896Z,5.80
2019-03-03T17:45:26.859Z,4.15
2019-03-03T17:51:11.196Z,3.95
2019-03-03T17:54:13.827Z,6.42
2019-03-03T17:59:49.996Z,4.58
2019-03-03T18:02:38.960Z,5.20
2019-03-03T18:08:36.776Z,13.95
2019-03-03T18:11:25.355Z,4.03
2019-03-03T18:14:14.160Z,8.13
2019-03-03T18:17:03.639Z,5.58
2019-03-03T18:19:52.236Z,3.60
2019-03-03T18:25:55.160Z,7.33
2019-03-03T18:34:45.995Z,5.25
2019-03-03T18:40:20.829Z,9.90
2019-03-03T18:43:09.997Z,5.55
2019-03-03T18:46:12.583Z,7.08
2019-03-03T18:48:49.260Z,6.83
2019-03-03T18:51:50.030Z,5.78
2019-03-03T18:57:16.744Z,8.05
2019-03-03T18:59:58.241Z,8.38
2019-03-03T19:02:39.155Z,7.30
2019-03-03T19:05:19.003Z,9.38
2019-03-03T19:08:07.589Z,10.13
2019-03-03T19:10:56.362Z,6.83
2019-03-03T19:13:45.124Z,6.58
2019-03-03T19:19:56.952Z,7.78
2019-03-03T19:22:33.214Z,7.95
2019-03-03T19:25:35.817Z,6.47
2019-03-03T19:28:12.239Z,7.12
2019-03-03T19:31:01.171Z,8.98
2019-03-03T19:33:51.541Z,5.12
2019-03-03T19:39:49.538Z,7.67
2019-03-03T19:42:38.139Z,5.83
2019-03-03T19:48:55.844Z,5.78
2019-03-03T19:51:32.137Z,7.53
2019-03-03T19:57:09.123Z,7.20
2019-03-03T19:59:50.694Z,13.03
2019-03-03T20:02:32.158Z,9.63
2019-03-03T20:05:11.897Z,6.80
2019-03-03T20:08:00.831Z,7.20
2019-03-03T20:11:01.590Z,13.62
2019-03-03T20:13:40.529Z,7.58
2019-03-03T20:16:41.031Z,9.98
2019-03-03T20:19:19.799Z,12.73
2019-03-03T20:25:02.074Z,6.62
2019-03-03T20:27:50.708Z,8.88
2019-03-03T20:33:34.669Z,7.33
2019-03-03T20:36:23.321Z,12.65
2019-03-03T20:48:32.192Z,9.33
2019-03-03T20:51:20.825Z,7.95
2019-03-03T20:57:11.504Z,7.42
2019-03-03T20:59:52.465Z,10.35
2019-03-03T21:02:33.804Z,6.42
2019-03-03T21:05:15.132Z,6.05
2019-03-03T21:07:56.059Z,6.97
2019-03-03T21:10:37.225Z,6.03
2019-03-03T21:13:18.250Z,6.22
2019-03-03T21:16:00.196Z,10.40
2019-03-03T21:18:41.236Z,9.28
2019-03-03T21:21:22.449Z,6.33
2019-03-03T21:24:04.025Z,6.35
2019-03-03T21:26:43.683Z,8.50
2019-03-03T21:29:32.323Z,10.95
2019-03-03T21:32:35.076Z,5.40
2019-03-03T21:38:20.949Z,8.33
2019-03-03T21:41:09.669Z,7.80
2019-03-03T21:43:58.288Z,6.90
2019-03-03T21:46:47.207Z,7.50
2019-03-03T21:49:37.230Z,4.70
2019-03-03T21:52:26.161Z,6.30
2019-03-03T21:55:07.656Z,7.12
2019-03-03T21:57:49.268Z,5.70
2019-03-03T22:00:29.745Z,8.55
2019-03-03T22:03:18.833Z,6.80
2019-03-03T22:09:16.624Z,3.72
2019-03-03T22:15:00.559Z,3.22
2019-03-03T22:18:03.550Z,5.22
2019-03-03T22:20:39.937Z,5.30
2019-03-03T22:32:13.009Z,3.83
2019-03-03T22:35:01.650Z,3.65
2019-03-03T22:41:05.033Z,6.83
2019-03-03T22:43:54.283Z,3.05
2019-03-03T22:46:42.877Z,4.42
2019-03-03T22:49:31.810Z,3.10
2019-03-03T22:55:22.628Z,6.08
2019-03-03T22:58:03.898Z,4.42
2019-03-03T23:00:49.379Z,3.50
2019-03-03T23:03:30.255Z,2.90
2019-03-03T23:06:11.631Z,4.20
2019-03-03T23:08:53.231Z,5.90
2019-03-03T23:11:34.537Z,4.55
2019-03-03T23:14:35.275Z,6.70
2019-03-03T23:17:42.862Z,3.20
2019-03-03T23:20:50.506Z,3.10
2019-03-03T23:23:58.364Z,4.72
2019-03-03T23:27:01.409Z,4.53
2019-03-03T23:29:37.705Z,2.92
2019-03-03T23:32:33.300Z,5.45
2019-03-03T23:35:22.023Z,3.33
2019-03-03T23:38:10.930Z,3.65
2019-03-03T23:41:14.472Z,3.80
2019-03-03T23:49:39.520Z,3.00
2019-03-03T23:52:28.291Z,3.00
2019-03-03T23:55:09.572Z,4.72
2019-03-03T23:57:51.358Z,3.80
